createdAt,value
2023-02-24T00:02:04.374Z,100955.13
2023-02-24T00:04:40.694Z,100959.94
2023-02-24T00:07:10.483Z,100957.34
2023-02-24T00:09:38.184Z,100960.38
2023-02-24T00:12:13.468Z,100958.72
2023-02-24T00:14:42.792Z,100959.19
2023-02-24T00:17:10.481Z,100958.81
2023-02-24T00:19:38.493Z,100951.50
2023-02-24T00:22:07.361Z,100941.59
2023-02-24T00:24:35.456Z,100941.22
2023-02-24T00:27:07.565Z,100939.00
2023-02-24T00:29:34.066Z,100941.69
2023-02-24T00:32:01.056Z,100945.75
2023-02-24T00:34:30.128Z,100935.81
2023-02-24T00:36:57.857Z,100935.06
2023-02-24T00:39:28.412Z,100933.78
2023-02-24T00:42:04.553Z,100930.47
2023-02-24T00:44:40.502Z,100928.47
2023-02-24T00:47:08.359Z,100934.78
2023-02-24T00:49:36.400Z,100930.41
2023-02-24T00:52:04.601Z,100916.44
2023-02-24T00:54:31.106Z,100912.31
2023-02-24T00:56:57.449Z,100912.53
2023-02-24T00:59:24.108Z,100911.47
2023-02-24T01:01:51.357Z,100899.94
2023-02-24T01:04:19.114Z,100897.81
2023-02-24T01:06:48.268Z,100897.22
2023-02-24T01:09:18.190Z,100892.84
2023-02-24T01:12:04.436Z,100889.78
2023-02-24T01:14:33.628Z,100891.66
2023-02-24T01:17:00.638Z,100875.44
2023-02-24T01:19:31.643Z,100878.28
2023-02-24T01:22:01.052Z,100872.41
2023-02-24T01:24:30.524Z,100872.03
2023-02-24T01:26:57.266Z,100874.16
2023-02-24T01:29:23.724Z,100871.69
2023-02-24T01:31:51.810Z,100869.22
2023-02-24T01:34:19.029Z,100865.81
2023-02-24T01:36:45.771Z,100865.91
2023-02-24T01:39:13.510Z,100858.84
2023-02-24T01:41:45.707Z,100859.50
2023-02-24T01:44:16.977Z,100856.88
2023-02-24T01:46:45.537Z,100865.22
2023-02-24T01:49:21.132Z,100865.66
2023-02-24T01:51:49.795Z,100855.53
2023-02-24T01:54:20.609Z,100846.97
2023-02-24T01:56:50.062Z,100854.47
2023-02-24T01:59:16.440Z,100847.84
2023-02-24T02:01:43.692Z,100847.66
2023-02-24T02:04:42.765Z,100844.13
2023-02-24T02:07:12.717Z,100845.16
2023-02-24T02:09:43.052Z,100835.03
2023-02-24T02:12:10.745Z,100838.78
2023-02-24T02:14:43.135Z,100834.88
2023-02-24T02:17:20.927Z,100835.47
2023-02-24T02:20:06.988Z,100831.72
2023-02-24T02:23:13.149Z,100819.56
2023-02-24T02:26:02.099Z,100831.44
2023-02-24T02:28:31.568Z,100823.16
2023-02-24T02:31:28.792Z,100824.34
2023-02-24T02:34:13.529Z,100818.06
2023-02-24T02:37:03.066Z,100816.03
2023-02-24T02:39:48.291Z,100816.13
2023-02-24T02:42:33.982Z,100810.09
2023-02-24T02:45:10.799Z,100811.97
2023-02-24T02:48:01.123Z,100804.06
2023-02-24T02:50:43.140Z,100805.56
2023-02-24T02:53:34.593Z,100802.53
2023-02-24T02:56:02.986Z,100796.72
2023-02-24T02:58:33.925Z,100795.53
2023-02-24T03:01:03.406Z,100793.47
2023-02-24T03:03:38.408Z,100790.16
2023-02-24T03:06:09.619Z,100790.31
2023-02-24T03:08:40.164Z,100792.94
2023-02-24T03:11:15.047Z,100786.47
2023-02-24T03:13:45.519Z,100777.94
2023-02-24T03:16:13.335Z,100786.47
2023-02-24T03:18:50.948Z,100774.03
2023-02-24T03:21:33.392Z,100780.72
2023-02-24T03:24:02.533Z,100774.75
2023-02-24T03:26:37.213Z,100772.44
2023-02-24T03:29:12.857Z,100765.47
2023-02-24T03:31:46.235Z,100759.03
2023-02-24T03:34:21.575Z,100759.69
2023-02-24T03:36:48.358Z,100756.38
2023-02-24T03:39:15.840Z,100751.81
2023-02-24T03:41:56.254Z,100750.53
2023-02-24T03:44:24.767Z,100744.53
2023-02-24T03:46:52.599Z,100742.66
2023-02-24T03:49:19.060Z,100745.81
2023-02-24T03:52:08.750Z,100738.16
2023-02-24T03:54:54.529Z,100742.06
2023-02-24T03:57:54.678Z,100741.84
2023-02-24T04:00:40.384Z,100742.28
2023-02-24T04:03:25.560Z,100741.03
2023-02-24T04:06:19.388Z,100745.38
2023-02-24T04:08:53.003Z,100742.06
2023-02-24T04:11:30.104Z,100750.22
2023-02-24T04:14:06.450Z,100747.53
2023-02-24T04:16:45.382Z,100740.25
2023-02-24T04:19:17.379Z,100741.88
2023-02-24T04:21:50.414Z,100745.19
2023-02-24T04:24:21.321Z,100738.53
2023-02-24T04:26:48.360Z,100743.97
2023-02-24T04:29:23.713Z,100743.56
2023-02-24T04:32:02.227Z,100740.25
2023-02-24T04:34:32.402Z,100732.16
2023-02-24T04:37:02.122Z,100730.13
2023-02-24T04:39:30.736Z,100733.84
2023-02-24T04:41:58.666Z,100731.22
2023-02-24T04:44:26.112Z,100725.59
2023-02-24T04:46:52.705Z,100736.16
2023-02-24T04:49:20.276Z,100727.88
2023-02-24T04:51:46.759Z,100726.59
2023-02-24T04:54:17.193Z,100730.34
2023-02-24T04:56:44.897Z,100728.25
2023-02-24T04:59:11.995Z,100718.94
2023-02-24T05:01:39.832Z,100715.41
2023-02-24T05:04:08.328Z,100719.66
2023-02-24T05:06:35.398Z,100719.47
2023-02-24T05:09:10.800Z,100709.28
2023-02-24T05:11:38.050Z,100710.53
2023-02-24T05:14:04.557Z,100700.19
2023-02-24T05:16:30.945Z,100700.19
2023-02-24T05:19:16.172Z,100700.19
2023-02-24T05:21:42.524Z,100698.16
2023-02-24T05:24:11.173Z,100697.31
2023-02-24T05:26:41.897Z,100700.84
2023-02-24T05:29:09.265Z,100706.44
2023-02-24T05:31:37.055Z,100706.88
2023-02-24T05:34:07.539Z,100703.16
2023-02-24T05:36:37.577Z,100703.16
2023-02-24T05:39:07.638Z,100702.81
2023-02-24T05:41:38.136Z,100699.53
2023-02-24T05:44:10.793Z,100692.25
2023-02-24T05:46:40.553Z,100680.84
2023-02-24T05:49:14.141Z,100693.78
2023-02-24T05:51:43.424Z,100681.78
2023-02-24T05:54:13.305Z,100685.13
2023-02-24T05:56:44.676Z,100680.78
2023-02-24T05:59:12.992Z,100677.94
2023-02-24T06:01:41.598Z,100680.41
2023-02-24T06:04:09.656Z,100681.44
2023-02-24T06:06:38.606Z,100669.03
2023-02-24T06:09:12.696Z,100662.56
2023-02-24T06:11:41.210Z,100660.69
2023-02-24T06:14:09.396Z,100666.53
2023-02-24T06:16:37.830Z,100667.84
2023-02-24T06:19:10.595Z,100663.50
2023-02-24T06:21:41.368Z,100660.41
2023-02-24T06:24:18.406Z,100656.03
2023-02-24T06:26:45.931Z,100658.31
2023-02-24T06:29:17.261Z,100652.94
2023-02-24T06:31:44.626Z,100659.34
2023-02-24T06:34:12.993Z,100652.66
2023-02-24T06:36:39.366Z,100651.41
2023-02-24T06:39:09.213Z,100653.94
2023-02-24T06:41:37.963Z,100647.94
2023-02-24T06:44:04.848Z,100643.97
2023-02-24T06:46:31.821Z,100653.72
2023-02-24T06:48:58.200Z,100646.00
2023-02-24T06:51:24.628Z,100645.78
2023-02-24T06:53:52.202Z,100641.28
2023-02-24T06:56:19.769Z,100646.84
2023-02-24T06:58:50.560Z,100645.00
2023-02-24T07:01:20.982Z,100641.06
2023-02-24T07:04:03.387Z,100636.31
2023-02-24T07:06:34.418Z,100641.50
2023-02-24T07:09:05.270Z,100641.69
2023-02-24T07:11:32.280Z,100648.66
2023-02-24T07:13:59.119Z,100641.19
2023-02-24T07:16:28.878Z,100638.63
2023-02-24T07:18:57.247Z,100641.94
2023-02-24T07:21:30.212Z,100649.41
2023-02-24T07:23:59.143Z,100648.59
2023-02-24T07:26:27.669Z,100647.13
2023-02-24T07:28:54.997Z,100644.03
2023-02-24T07:31:24.263Z,100633.22
2023-02-24T07:33:56.697Z,100640.22
2023-02-24T07:36:24.302Z,100628.19
2023-02-24T07:38:54.376Z,100629.16
2023-02-24T07:41:22.794Z,100634.81
2023-02-24T07:43:51.705Z,100626.72
2023-02-24T07:46:21.306Z,100623.13
2023-02-24T07:48:47.843Z,100621.31
2023-02-24T07:51:16.934Z,100606.78
2023-02-24T07:53:43.602Z,100614.44
2023-02-24T07:56:13.797Z,100607.63
2023-02-24T07:58:42.372Z,100604.25
2023-02-24T08:01:09.075Z,100605.16
2023-02-24T08:03:41.090Z,100601.84
2023-02-24T08:06:26.790Z,100588.38
2023-02-24T08:08:59.536Z,100579.06
2023-02-24T08:11:36.930Z,100579.38
2023-02-24T08:14:08.483Z,100571.13
2023-02-24T08:16:39.557Z,100572.47
2023-02-24T08:19:14.956Z,100568.50
2023-02-24T08:21:47.526Z,100557.44
2023-02-24T08:24:18.014Z,100556.00
2023-02-24T08:26:48.390Z,100557.06
2023-02-24T08:29:14.798Z,100559.97
2023-02-24T08:31:43.344Z,100548.59
2023-02-24T08:34:09.757Z,100547.09
2023-02-24T08:36:36.224Z,100551.81
2023-02-24T08:39:02.712Z,100542.81
2023-02-24T08:41:44.751Z,100539.69
2023-02-24T08:44:12.752Z,100538.16
2023-02-24T08:46:43.462Z,100540.34
2023-02-24T08:49:10.897Z,100540.56
2023-02-24T08:51:43.736Z,100535.53
2023-02-24T08:54:16.993Z,100532.16
2023-02-24T08:56:49.071Z,100518.81
2023-02-24T08:59:36.711Z,100514.13
2023-02-24T09:02:18.656Z,100522.00
2023-02-24T09:04:47.769Z,100511.75
2023-02-24T09:07:16.909Z,100515.34
2023-02-24T09:09:44.157Z,100515.13
2023-02-24T09:12:21.842Z,100506.81
2023-02-24T09:14:50.482Z,100498.94
2023-02-24T09:17:20.572Z,100499.75
2023-02-24T09:19:52.176Z,100500.34
2023-02-24T09:22:40.048Z,100500.94
2023-02-24T09:25:40.210Z,100492.09
2023-02-24T09:28:17.016Z,100488.69
2023-02-24T09:30:53.482Z,100486.81
2023-02-24T09:33:29.032Z,100482.47
2023-02-24T09:36:09.703Z,100473.69
2023-02-24T09:39:09.815Z,100480.16
2023-02-24T09:42:17.805Z,100485.94
2023-02-24T09:44:52.750Z,100483.47
2023-02-24T09:47:51.218Z,100482.91
2023-02-24T09:50:55.500Z,100482.66
2023-02-24T09:53:18.431Z,100466.84
2023-02-24T09:56:03.599Z,100465.34
2023-02-24T09:58:48.135Z,100464.63
2023-02-24T10:01:33.469Z,100463.25
2023-02-24T10:04:20.877Z,100466.09
2023-02-24T10:06:50.222Z,100461.47
2023-02-24T10:09:33.445Z,100456.84
2023-02-24T10:12:07.541Z,100443.88
2023-02-24T10:14:51.143Z,100446.47
2023-02-24T10:17:24.194Z,100432.03
2023-02-24T10:20:00.557Z,100431.09
2023-02-24T10:22:52.721Z,100433.19
2023-02-24T10:25:41.367Z,100426.63
2023-02-24T10:28:23.059Z,100425.59
2023-02-24T10:31:10.203Z,100431.56
2023-02-24T10:33:45.031Z,100433.09
2023-02-24T10:36:17.158Z,100424.41
2023-02-24T10:38:50.728Z,100422.16
2023-02-24T10:41:17.775Z,100425.81
2023-02-24T10:43:56.141Z,100419.22
2023-02-24T10:46:41.119Z,100407.94
2023-02-24T10:49:11.654Z,100403.25
2023-02-24T10:51:47.264Z,100403.84
2023-02-24T10:54:45.166Z,100402.81
2023-02-24T10:57:38.303Z,100400.16
2023-02-24T11:00:18.101Z,100411.56
2023-02-24T11:02:57.532Z,100403.09
2023-02-24T11:05:38.339Z,100385.84
2023-02-24T11:08:09.412Z,100376.94
2023-02-24T11:10:42.809Z,100374.59
2023-02-24T11:13:34.500Z,100369.88
2023-02-24T11:16:19.912Z,100372.00
2023-02-24T11:18:49.968Z,100366.38
2023-02-24T11:21:17.441Z,100367.63
2023-02-24T11:23:50.742Z,100354.59
2023-02-24T11:26:22.141Z,100346.88
2023-02-24T11:29:19.724Z,100350.75
2023-02-24T11:32:01.547Z,100352.97
2023-02-24T11:34:36.198Z,100348.16
2023-02-24T11:37:54.628Z,100343.66
2023-02-24T11:40:25.698Z,100335.41
2023-02-24T11:42:57.938Z,100336.34
2023-02-24T11:45:46.381Z,100322.25
2023-02-24T11:48:19.533Z,100316.28
2023-02-24T11:50:53.134Z,100313.25
2023-02-24T11:53:35.669Z,100301.75
2023-02-24T11:56:30.206Z,100298.13
2023-02-24T11:59:12.683Z,100288.50
2023-02-24T12:01:50.711Z,100276.88
2023-02-24T12:04:26.491Z,100278.56
2023-02-24T12:07:18.404Z,100273.25
2023-02-24T12:09:53.748Z,100264.22
2023-02-24T12:12:32.511Z,100262.72
2023-02-24T12:15:15.710Z,100260.72
2023-02-24T12:18:07.965Z,100261.03
2023-02-24T12:20:42.971Z,100252.56
2023-02-24T12:23:20.842Z,100249.88
2023-02-24T12:25:55.857Z,100248.66
2023-02-24T12:28:54.575Z,100242.06
2023-02-24T12:31:45.717Z,100232.34
2023-02-24T12:34:20.196Z,100233.16
2023-02-24T12:36:59.340Z,100234.13
2023-02-24T12:39:36.630Z,100225.13
2023-02-24T12:42:18.282Z,100222.19
2023-02-24T12:45:21.973Z,100222.19
2023-02-24T12:48:13.205Z,100214.94
2023-02-24T12:50:53.404Z,100216.81
2023-02-24T12:53:29.062Z,100217.63
2023-02-24T12:56:14.249Z,100206.84
2023-02-24T12:58:45.364Z,100208.34
2023-02-24T13:01:27.287Z,100206.66
2023-02-24T13:04:21.189Z,100199.44
2023-02-24T13:07:15.243Z,100196.97
2023-02-24T13:09:54.774Z,100191.81
2023-02-24T13:12:36.326Z,100197.53
2023-02-24T13:15:21.116Z,100186.88
2023-02-24T13:17:51.491Z,100178.25
2023-02-24T13:20:36.513Z,100177.44
2023-02-24T13:23:18.815Z,100168.91
2023-02-24T13:25:52.027Z,100170.50
2023-02-24T13:28:28.705Z,100163.91
2023-02-24T13:31:07.121Z,100163.19
2023-02-24T13:33:38.614Z,100162.81
2023-02-24T13:36:15.594Z,100156.38
2023-02-24T13:38:48.810Z,100160.00
2023-02-24T13:41:27.173Z,100151.59
2023-02-24T13:44:24.834Z,100149.63
2023-02-24T13:47:17.771Z,100148.19
2023-02-24T13:50:14.826Z,100143.66
2023-02-24T13:52:52.621Z,100140.81
2023-02-24T13:55:29.396Z,100134.56
2023-02-24T13:58:01.835Z,100130.69
2023-02-24T14:00:53.018Z,100119.78
2023-02-24T14:03:24.224Z,100119.56
2023-02-24T14:05:51.499Z,100109.91
2023-02-24T14:08:26.663Z,100109.81
2023-02-24T14:10:57.024Z,100103.03
2023-02-24T14:13:27.917Z,100108.56
2023-02-24T14:15:56.188Z,100110.00
2023-02-24T14:18:27.646Z,100104.03
2023-02-24T14:20:56.871Z,100102.97
2023-02-24T14:23:26.331Z,100099.69
2023-02-24T14:26:05.619Z,100092.34
2023-02-24T14:28:36.102Z,100085.66
2023-02-24T14:31:12.391Z,100084.84
2023-02-24T14:33:40.791Z,100085.44
2023-02-24T14:36:16.180Z,100082.72
2023-02-24T14:38:44.852Z,100067.59
2023-02-24T14:41:24.166Z,100080.50
2023-02-24T14:43:51.820Z,100076.53
2023-02-24T14:46:19.040Z,100064.59
2023-02-24T14:48:46.234Z,100063.31
2023-02-24T14:51:46.746Z,100063.09
2023-02-24T14:54:20.798Z,100052.31
2023-02-24T14:56:47.534Z,100052.75
2023-02-24T14:59:31.096Z,100048.53
2023-02-24T15:01:58.041Z,100052.41
2023-02-24T15:04:32.981Z,100044.28
2023-02-24T15:07:03.069Z,100048.00
2023-02-24T15:09:36.451Z,100037.22
2023-02-24T15:12:19.024Z,100038.53
2023-02-24T15:14:53.257Z,100033.13
2023-02-24T15:17:21.131Z,100024.56
2023-02-24T15:19:54.144Z,100033.13
2023-02-24T15:22:21.964Z,100029.72
2023-02-24T15:24:49.161Z,100016.25
2023-02-24T15:27:15.411Z,100016.72
2023-02-24T15:29:43.687Z,100006.78
2023-02-24T15:32:23.406Z,100014.38
2023-02-24T15:34:49.905Z,100002.31
2023-02-24T15:37:26.372Z,100008.53
2023-02-24T15:40:05.554Z,100003.72
2023-02-24T15:42:34.689Z,99998.47
2023-02-24T15:45:06.976Z,99996.34
2023-02-24T15:47:44.718Z,99998.78
2023-02-24T15:50:12.905Z,99985.56
2023-02-24T15:52:40.593Z,99986.25
2023-02-24T15:55:10.293Z,99981.44
2023-02-24T15:57:36.963Z,99973.03
2023-02-24T16:00:13.034Z,99978.44
2023-02-24T16:02:40.611Z,99963.16
2023-02-24T16:05:09.516Z,99967.06
2023-02-24T16:07:38.413Z,99973.84
2023-02-24T16:10:06.086Z,99968.69
2023-02-24T16:12:39.414Z,99968.69
2023-02-24T16:15:07.043Z,99969.50
2023-02-24T16:17:40.237Z,99969.38
2023-02-24T16:20:12.528Z,99970.22
2023-02-24T16:22:38.971Z,99959.78
2023-02-24T16:25:06.720Z,99962.72
2023-02-24T16:27:33.543Z,99961.75
2023-02-24T16:30:00.531Z,99968.69
2023-02-24T16:32:27.181Z,99955.44
2023-02-24T16:34:53.765Z,99956.88
2023-02-24T16:37:24.504Z,99956.88
2023-02-24T16:39:50.992Z,99949.94
2023-02-24T16:42:18.274Z,99943.25
2023-02-24T16:44:48.447Z,99947.47
2023-02-24T16:47:22.700Z,99942.09
2023-02-24T16:49:50.141Z,99945.94
2023-02-24T16:52:20.584Z,99949.22
2023-02-24T16:54:48.217Z,99955.31
2023-02-24T16:57:15.248Z,99949.19
2023-02-24T16:59:41.681Z,99957.88
2023-02-24T17:02:18.736Z,99953.53
2023-02-24T17:04:45.182Z,99952.94
2023-02-24T17:07:11.599Z,99945.94
2023-02-24T17:09:38.206Z,99950.81
2023-02-24T17:12:04.967Z,99944.97
2023-02-24T17:14:31.393Z,99949.91
2023-02-24T17:17:00.914Z,99942.28
2023-02-24T17:19:27.424Z,99939.22
2023-02-24T17:21:53.813Z,99952.03
2023-02-24T17:24:20.657Z,99945.19
2023-02-24T17:26:47.295Z,99947.09
2023-02-24T17:29:14.662Z,99953.28
2023-02-24T17:31:42.354Z,99962.81
2023-02-24T17:34:09.377Z,99968.19
2023-02-24T17:36:35.834Z,99948.25
2023-02-24T17:39:02.324Z,99957.63
2023-02-24T17:41:28.780Z,99956.72
2023-02-24T17:43:55.453Z,99953.28
2023-02-24T17:46:22.335Z,99954.81
2023-02-24T17:48:48.862Z,99955.38
2023-02-24T17:51:17.211Z,99962.19
2023-02-24T17:53:43.725Z,99956.09
2023-02-24T17:56:10.588Z,99954.81
2023-02-24T17:58:38.153Z,99953.03
2023-02-24T18:01:06.148Z,99954.19
2023-02-24T18:03:34.494Z,99951.84
2023-02-24T18:06:04.036Z,99959.22
2023-02-24T18:08:31.904Z,99966.06
2023-02-24T18:10:59.113Z,99976.25
2023-02-24T18:13:26.690Z,99966.75
2023-02-24T18:15:53.194Z,99971.91
2023-02-24T18:18:20.159Z,99974.94
2023-02-24T18:20:46.694Z,99971.53
2023-02-24T18:23:14.084Z,99972.59
2023-02-24T18:25:40.407Z,99960.28
2023-02-24T18:28:06.980Z,99961.09
2023-02-24T18:30:33.617Z,99962.13
2023-02-24T18:33:00.168Z,99967.44
2023-02-24T18:35:27.135Z,99965.13
2023-02-24T18:37:56.508Z,99966.28
2023-02-24T18:40:24.147Z,99970.13
2023-02-24T18:42:51.703Z,99951.03
2023-02-24T18:45:19.108Z,99956.16
2023-02-24T18:47:46.171Z,99950.78
2023-02-24T18:50:14.546Z,99955.69
2023-02-24T18:52:41.372Z,99945.25
2023-02-24T18:55:08.139Z,99960.63
2023-02-24T18:57:34.616Z,99959.78
2023-02-24T19:00:01.132Z,99967.66
2023-02-24T19:02:27.684Z,99961.66
2023-02-24T19:04:54.085Z,99961.22
2023-02-24T19:07:20.520Z,99962.59
2023-02-24T19:09:48.161Z,99968.81
2023-02-24T19:12:15.591Z,99965.06
2023-02-24T19:14:42.512Z,99971.50
2023-02-24T19:17:08.964Z,99982.22
2023-02-24T19:19:35.351Z,99972.47
2023-02-24T19:22:01.735Z,99996.03
2023-02-24T19:24:30.303Z,99983.41
2023-02-24T19:26:56.682Z,99993.03
2023-02-24T19:29:23.203Z,99981.19
2023-02-24T19:31:53.973Z,99985.19
2023-02-24T19:34:20.822Z,99989.41
2023-02-24T19:36:47.304Z,99983.66
2023-02-24T19:39:15.124Z,99994.44
2023-02-24T19:41:42.184Z,99988.94
2023-02-24T19:44:10.149Z,99992.22
2023-02-24T19:46:36.742Z,99992.69
2023-02-24T19:49:03.985Z,99996.06
2023-02-24T19:51:31.129Z,99999.50
2023-02-24T19:54:00.061Z,100000.19
2023-02-24T19:56:29.246Z,100008.16
2023-02-24T19:58:57.538Z,100006.25
2023-02-24T20:01:25.148Z,100010.00
2023-02-24T20:03:54.625Z,100013.06
2023-02-24T20:06:25.672Z,100023.59
2023-02-24T20:08:52.537Z,100023.88
2023-02-24T20:11:20.434Z,100029.94
2023-02-24T20:13:47.702Z,100031.47
2023-02-24T20:16:20.054Z,100033.81
2023-02-24T20:18:46.589Z,100031.47
2023-02-24T20:21:13.475Z,100027.72
2023-02-24T20:23:40.922Z,100031.59
2023-02-24T20:26:09.595Z,100037.78
2023-02-24T20:28:36.003Z,100041.09
2023-02-24T20:31:08.101Z,100041.09
2023-02-24T20:33:34.470Z,100037.22
2023-02-24T20:36:01.253Z,100031.25
2023-02-24T20:38:29.017Z,100037.81
2023-02-24T20:41:01.159Z,100050.00
2023-02-24T20:43:27.946Z,100046.03
2023-02-24T20:45:54.939Z,100051.88
2023-02-24T20:48:21.597Z,100056.22
2023-02-24T20:50:48.075Z,100071.22
2023-02-24T20:53:14.458Z,100058.78
2023-02-24T20:55:41.005Z,100056.44
2023-02-24T20:58:07.500Z,100054.94
2023-02-24T21:00:34.197Z,100059.50
2023-02-24T21:03:00.951Z,100071.22
2023-02-24T21:05:27.612Z,100062.06
2023-02-24T21:07:54.172Z,100062.44
2023-02-24T21:10:25.134Z,100060.78
2023-02-24T21:12:52.572Z,100070.38
2023-02-24T21:15:19.788Z,100065.47
2023-02-24T21:17:46.135Z,100062.88
2023-02-24T21:20:13.433Z,100062.78
2023-02-24T21:22:40.436Z,100067.34
2023-02-24T21:25:08.232Z,100067.69
2023-02-24T21:27:34.682Z,100069.47
2023-02-24T21:30:01.090Z,100067.94
2023-02-24T21:32:27.899Z,100065.72
2023-02-24T21:34:54.298Z,100068.63
2023-02-24T21:37:20.679Z,100075.91
2023-02-24T21:39:47.330Z,100086.09
2023-02-24T21:42:13.661Z,100079.88
2023-02-24T21:44:44.135Z,100084.91
2023-02-24T21:47:11.160Z,100076.25
2023-02-24T21:49:37.637Z,100081.63
2023-02-24T21:52:09.460Z,100080.81
2023-02-24T21:54:36.000Z,100077.72
2023-02-24T21:57:02.443Z,100082.00
2023-02-24T21:59:29.066Z,100077.56
2023-02-24T22:01:55.822Z,100090.44
2023-02-24T22:04:23.370Z,100087.84
2023-02-24T22:06:49.993Z,100087.44
2023-02-24T22:09:20.460Z,100096.59
2023-02-24T22:11:48.901Z,100084.16
2023-02-24T22:14:16.074Z,100079.25
2023-02-24T22:16:43.000Z,100082.66
2023-02-24T22:19:09.790Z,100080.44
2023-02-24T22:21:36.765Z,100089.13
2023-02-24T22:24:03.738Z,100084.16
2023-02-24T22:26:32.024Z,100087.34
2023-02-24T22:28:59.099Z,100097.53
2023-02-24T22:31:28.269Z,100088.38
2023-02-24T22:33:55.142Z,100095.41
2023-02-24T22:36:29.879Z,100095.88
2023-02-24T22:38:58.204Z,100090.47
2023-02-24T22:41:31.087Z,100091.19
2023-02-24T22:43:58.209Z,100100.88
2023-02-24T22:46:27.820Z,100105.47
2023-02-24T22:48:55.438Z,100107.72
2023-02-24T22:51:21.940Z,100106.75
2023-02-24T22:53:49.520Z,100112.97
2023-02-24T22:56:22.236Z,100107.13
2023-02-24T22:58:49.162Z,100113.09
2023-02-24T23:01:25.847Z,100112.41
2023-02-24T23:03:52.887Z,100112.16
2023-02-24T23:06:23.023Z,100124.47
2023-02-24T23:08:51.851Z,100119.88
2023-02-24T23:11:31.076Z,100120.59
2023-02-24T23:14:00.255Z,100117.91
2023-02-24T23:16:29.714Z,100113.75
2023-02-24T23:19:04.517Z,100120.31
2023-02-24T23:21:38.114Z,100123.59
2023-02-24T23:24:06.105Z,100123.97
2023-02-24T23:26:42.295Z,100124.91
2023-02-24T23:29:10.444Z,100133.78
2023-02-24T23:31:37.479Z,100130.50
2023-02-24T23:34:06.842Z,100141.63
2023-02-24T23:36:38.831Z,100142.44
2023-02-24T23:39:07.027Z,100144.09
2023-02-24T23:41:34.263Z,100143.03
2023-02-24T23:44:00.954Z,100141.25
2023-02-24T23:46:27.451Z,100139.25
2023-02-24T23:48:54.444Z,100138.91
2023-02-24T23:51:21.197Z,100153.44
2023-02-24T23:53:48.334Z,100157.84
2023-02-24T23:56:17.654Z,100169.22
2023-02-24T23:58:44.592Z,100165.00
